createdAt,value
2024-01-15T00:01:18.943Z,98345.45
2024-01-15T00:03:49.628Z,98340.24
2024-01-15T00:06:20.382Z,98341.27
2024-01-15T00:08:50.900Z,98336.05
2024-01-15T00:11:21.561Z,98330.97
2024-01-15T00:13:52.014Z,98321.69
2024-01-15T00:16:22.653Z,98313.79
2024-01-15T00:18:53.266Z,98306.18
2024-01-15T00:21:24.559Z,98303.83
2024-01-15T00:23:55.045Z,98299.29
2024-01-15T00:26:25.474Z,98294.39
2024-01-15T00:28:56.018Z,98291.65
2024-01-15T00:31:26.518Z,98285.20
2024-01-15T00:33:57.122Z,98278.57
2024-01-15T00:36:28.144Z,98268.45
2024-01-15T00:38:58.664Z,98267.48
2024-01-15T00:41:29.947Z,98265.11
2024-01-15T00:44:00.391Z,98258.69
2024-01-15T00:46:30.922Z,98253.44
2024-01-15T00:49:01.558Z,98250.38
2024-01-15T00:51:32.206Z,98245.61
2024-01-15T00:54:03.611Z,98243.72
2024-01-15T00:56:34.124Z,98234.03
2024-01-15T00:59:04.809Z,98233.16
2024-01-15T01:01:35.362Z,98233.80
2024-01-15T01:04:06.200Z,98235.41
2024-01-15T01:06:36.809Z,98231.67
2024-01-15T01:09:07.520Z,98227.64
2024-01-15T01:11:38.028Z,98230.51
2024-01-15T01:14:08.629Z,98228.14
2024-01-15T01:16:40.566Z,98225.45
2024-01-15T01:19:11.502Z,98222.98
2024-01-15T01:21:42.105Z,98219.27
2024-01-15T01:24:12.597Z,98213.53
2024-01-15T01:26:43.117Z,98217.69
2024-01-15T01:29:13.605Z,98214.25
2024-01-15T01:31:48.034Z,98212.54
2024-01-15T01:34:19.598Z,98211.35
2024-01-15T01:36:50.382Z,98212.70
2024-01-15T01:39:20.975Z,98212.71
2024-01-15T01:41:51.523Z,98206.64
2024-01-15T01:44:21.986Z,98203.30
2024-01-15T01:46:52.701Z,98200.90
2024-01-15T01:49:23.555Z,98187.02
2024-01-15T01:51:54.734Z,98183.84
2024-01-15T01:54:25.593Z,98184.21
2024-01-15T01:56:56.123Z,98181.19
2024-01-15T01:59:28.131Z,98186.27
2024-01-15T02:01:59.598Z,98186.05
2024-01-15T02:04:30.416Z,98185.86
2024-01-15T02:07:01.017Z,98191.60
2024-01-15T02:09:33.163Z,98194.23
2024-01-15T02:12:04.233Z,98197.35
2024-01-15T02:14:35.082Z,98192.37
2024-01-15T02:17:05.843Z,98190.02
2024-01-15T02:19:36.494Z,98187.06
2024-01-15T02:22:07.332Z,98182.20
2024-01-15T02:24:38.052Z,98179.92
2024-01-15T02:27:08.950Z,98172.27
2024-01-15T02:29:39.897Z,98171.25
2024-01-15T02:32:12.371Z,98166.70
2024-01-15T02:34:41.414Z,98166.10
2024-01-15T02:37:12.178Z,98159.40
2024-01-15T02:39:42.659Z,98147.35
2024-01-15T02:42:13.211Z,98146.90
2024-01-15T02:44:43.684Z,98146.59
2024-01-15T02:47:14.125Z,98145.92
2024-01-15T02:49:44.616Z,98143.05
2024-01-15T02:52:15.161Z,98142.04
2024-01-15T02:54:45.725Z,98148.09
2024-01-15T02:57:16.346Z,98135.23
2024-01-15T02:59:46.819Z,98132.31
2024-01-15T03:02:17.464Z,98126.55
2024-01-15T03:04:48.342Z,98121.26
2024-01-15T03:07:19.926Z,98117.70
2024-01-15T03:09:51.111Z,98108.25
2024-01-15T03:12:21.719Z,98106.04
2024-01-15T03:14:52.201Z,98116.80
2024-01-15T03:17:22.672Z,98111.56
2024-01-15T03:19:53.174Z,98114.25
2024-01-15T03:22:23.806Z,98100.36
2024-01-15T03:24:54.845Z,98107.16
2024-01-15T03:27:27.158Z,98098.91
2024-01-15T03:29:57.782Z,98094.20
2024-01-15T03:32:28.294Z,98092.48
2024-01-15T03:34:58.847Z,98099.23
2024-01-15T03:37:29.390Z,98098.89
2024-01-15T03:39:59.957Z,98106.67
2024-01-15T03:42:30.583Z,98102.96
2024-01-15T03:45:01.132Z,98096.56
2024-01-15T03:47:31.720Z,98091.35
2024-01-15T03:50:02.258Z,98092.05
2024-01-15T03:52:32.747Z,98093.65
2024-01-15T03:55:03.426Z,98089.63
2024-01-15T03:57:34.010Z,98084.23
2024-01-15T04:00:04.898Z,98077.17
2024-01-15T04:02:35.770Z,98071.80
2024-01-15T04:05:06.949Z,98070.63
2024-01-15T04:07:37.465Z,98069.95
2024-01-15T04:10:09.065Z,98072.48
2024-01-15T04:12:39.575Z,98069.10
2024-01-15T04:15:10.753Z,98069.11
2024-01-15T04:17:41.410Z,98060.85
2024-01-15T04:20:13.235Z,98054.10
2024-01-15T04:22:43.709Z,98047.17
2024-01-15T04:25:14.210Z,98046.53
2024-01-15T04:27:44.765Z,98046.94
2024-01-15T04:30:16.514Z,98051.73
2024-01-15T04:32:47.201Z,98050.38
2024-01-15T04:35:17.829Z,98051.58
2024-01-15T04:37:48.302Z,98041.82
2024-01-15T04:40:18.935Z,98031.68
2024-01-15T04:42:49.508Z,98025.94
2024-01-15T04:45:20.974Z,98020.70
2024-01-15T04:47:51.520Z,98018.98
2024-01-15T04:50:22.030Z,98020.33
2024-01-15T04:52:53.212Z,98018.79
2024-01-15T04:55:23.780Z,98020.13
2024-01-15T04:57:54.252Z,98025.34
2024-01-15T05:00:24.847Z,98024.68
2024-01-15T05:02:55.693Z,98028.08
2024-01-15T05:05:27.146Z,98027.13
2024-01-15T05:07:57.750Z,98021.40
2024-01-15T05:10:28.294Z,98023.41
2024-01-15T05:12:59.084Z,98023.91
2024-01-15T05:15:29.652Z,98024.75
2024-01-15T05:18:00.326Z,98026.05
2024-01-15T05:20:30.941Z,98031.36
2024-01-15T05:23:01.713Z,98030.63
2024-01-15T05:25:32.212Z,98032.84
2024-01-15T05:28:02.746Z,98041.84
2024-01-15T05:30:33.306Z,98043.33
2024-01-15T05:33:04.489Z,98045.31
2024-01-15T05:35:35.078Z,98042.94
2024-01-15T05:38:05.784Z,98041.05
2024-01-15T05:40:36.726Z,98044.04
2024-01-15T05:43:07.466Z,98044.48
2024-01-15T05:45:40.760Z,98042.60
2024-01-15T05:48:11.397Z,98044.27
2024-01-15T05:50:42.041Z,98044.63
2024-01-15T05:53:12.529Z,98050.75
2024-01-15T05:55:43.094Z,98056.58
2024-01-15T05:58:13.597Z,98056.94
2024-01-15T06:00:44.136Z,98053.73
2024-01-15T06:03:14.664Z,98045.68
2024-01-15T06:05:45.470Z,98048.92
2024-01-15T06:08:16.860Z,98056.63
2024-01-15T06:10:47.318Z,98057.95
2024-01-15T06:13:17.765Z,98050.66
2024-01-15T06:15:48.434Z,98053.34
2024-01-15T06:18:19.325Z,98049.14
2024-01-15T06:20:49.990Z,98054.61
2024-01-15T06:23:21.563Z,98050.97
2024-01-15T06:25:52.241Z,98040.05
2024-01-15T06:28:22.721Z,98048.50
2024-01-15T06:30:53.427Z,98055.91
2024-01-15T06:33:24.002Z,98059.77
2024-01-15T06:35:54.528Z,98060.96
2024-01-15T06:38:26.296Z,98062.47
2024-01-15T06:40:56.759Z,98060.13
2024-01-15T06:43:27.279Z,98066.57
2024-01-15T06:45:57.946Z,98068.39
2024-01-15T06:48:28.704Z,98077.55
2024-01-15T06:50:59.536Z,98080.95
2024-01-15T06:53:30.141Z,98080.58
2024-01-15T06:56:01.037Z,98085.13
2024-01-15T06:58:33.017Z,98085.80
2024-01-15T07:01:03.648Z,98087.48
2024-01-15T07:03:34.642Z,98094.07
2024-01-15T07:06:05.761Z,98093.36
2024-01-15T07:08:36.273Z,98099.27
2024-01-15T07:11:09.472Z,98105.17
2024-01-15T07:13:41.662Z,98100.11
2024-01-15T07:16:12.155Z,98103.73
2024-01-15T07:18:42.697Z,98102.98
2024-01-15T07:21:13.783Z,98104.86
2024-01-15T07:23:44.649Z,98111.95
2024-01-15T07:26:15.153Z,98114.98
2024-01-15T07:28:45.613Z,98113.28
2024-01-15T07:31:17.364Z,98120.38
2024-01-15T07:33:48.539Z,98125.77
2024-01-15T07:36:19.077Z,98127.95
2024-01-15T07:38:50.006Z,98121.14
2024-01-15T07:41:20.478Z,98129.27
2024-01-15T07:43:51.252Z,98119.85
2024-01-15T07:46:21.806Z,98117.45
2024-01-15T07:48:57.462Z,98112.74
2024-01-15T07:51:28.356Z,98109.05
2024-01-15T07:53:58.917Z,98112.46
2024-01-15T07:56:29.517Z,98105.88
2024-01-15T07:59:00.043Z,98096.34
2024-01-15T08:01:30.821Z,98080.38
2024-01-15T08:04:01.511Z,98070.61
2024-01-15T08:06:33.198Z,98079.91
2024-01-15T08:09:05.191Z,98081.77
2024-01-15T08:11:35.728Z,98075.23
2024-01-15T08:14:06.336Z,98077.81
2024-01-15T08:16:36.842Z,98086.45
2024-01-15T08:19:07.677Z,98084.23
2024-01-15T08:21:38.326Z,98079.84
2024-01-15T08:24:09.272Z,98078.27
2024-01-15T08:26:39.791Z,98071.54
2024-01-15T08:29:10.350Z,98062.06
2024-01-15T08:31:41.249Z,98073.72
2024-01-15T08:34:12.071Z,98071.88
2024-01-15T08:36:42.971Z,98077.29
2024-01-15T08:39:13.725Z,98082.70
2024-01-15T08:41:44.419Z,98082.18
2024-01-15T08:44:14.986Z,98090.80
2024-01-15T08:46:45.461Z,98090.65
2024-01-15T08:49:16.038Z,98091.17
2024-01-15T08:51:46.745Z,98093.38
2024-01-15T08:54:19.383Z,98096.60
2024-01-15T08:56:49.895Z,98098.81
2024-01-15T08:59:25.836Z,98095.08
2024-01-15T09:01:58.211Z,98095.61
2024-01-15T09:04:28.870Z,98098.38
2024-01-15T09:06:59.472Z,98091.98
2024-01-15T09:09:29.998Z,98086.95
2024-01-15T09:12:00.533Z,98089.36
2024-01-15T09:14:36.686Z,98086.85
2024-01-15T09:17:09.320Z,98090.59
2024-01-15T09:19:40.932Z,98088.91
2024-01-15T09:22:11.513Z,98085.23
2024-01-15T09:24:44.080Z,98087.80
2024-01-15T09:27:14.800Z,98097.72
2024-01-15T09:29:47.202Z,98082.77
2024-01-15T09:32:17.118Z,98084.26
2024-01-15T09:34:48.389Z,98087.12
2024-01-15T09:37:31.296Z,98083.42
2024-01-15T09:40:10.886Z,98086.19
2024-01-15T09:42:41.897Z,98083.40
2024-01-15T09:45:13.561Z,98085.48
2024-01-15T09:47:46.070Z,98079.91
2024-01-15T09:50:18.310Z,98087.85
2024-01-15T09:52:50.248Z,98085.77
2024-01-15T09:55:21.212Z,98088.73
2024-01-15T09:57:52.838Z,98088.39
2024-01-15T10:00:24.586Z,98086.44
2024-01-15T10:02:55.144Z,98085.34
2024-01-15T10:05:25.746Z,98080.98
2024-01-15T10:07:58.746Z,98083.21
2024-01-15T10:10:29.229Z,98080.17
2024-01-15T10:13:00.565Z,98085.72
2024-01-15T10:15:31.241Z,98083.83
2024-01-15T10:18:01.854Z,98075.66
2024-01-15T10:20:33.919Z,98079.23
2024-01-15T10:23:05.440Z,98081.14
2024-01-15T10:25:37.505Z,98072.20
2024-01-15T10:28:09.208Z,98069.54
2024-01-15T10:30:39.848Z,98072.75
2024-01-15T10:33:10.677Z,98086.40
2024-01-15T10:35:43.092Z,98080.80
2024-01-15T10:38:13.786Z,98073.58
2024-01-15T10:40:44.296Z,98073.96
2024-01-15T10:43:14.769Z,98078.41
2024-01-15T10:45:45.473Z,98075.19
2024-01-15T10:48:16.511Z,98063.04
2024-01-15T10:50:48.049Z,98076.23
2024-01-15T10:53:20.375Z,98064.73
2024-01-15T10:55:52.664Z,98063.93
2024-01-15T10:58:25.156Z,98065.67
2024-01-15T11:00:54.447Z,98053.86
2024-01-15T11:03:25.573Z,98052.34
2024-01-15T11:05:57.266Z,98049.98
2024-01-15T11:08:29.090Z,98059.70
2024-01-15T11:11:00.109Z,98054.93
2024-01-15T11:13:44.981Z,98043.39
2024-01-15T11:16:19.533Z,98055.41
2024-01-15T11:19:09.629Z,98047.75
2024-01-15T11:21:45.975Z,98053.38
2024-01-15T11:24:37.858Z,98046.80
2024-01-15T11:27:09.601Z,98062.86
2024-01-15T11:29:40.666Z,98053.22
2024-01-15T11:32:11.954Z,98052.24
2024-01-15T11:35:04.225Z,98062.14
2024-01-15T11:38:02.600Z,98039.80
2024-01-15T11:40:44.156Z,98047.66
2024-01-15T11:43:18.076Z,98059.54
2024-01-15T11:45:52.833Z,98048.69
2024-01-15T11:48:25.347Z,98049.69
2024-01-15T11:50:57.669Z,98046.31
2024-01-15T11:53:38.811Z,98043.30
2024-01-15T11:56:18.819Z,98043.02
2024-01-15T11:58:49.334Z,98050.62
2024-01-15T12:01:22.024Z,98045.73
2024-01-15T12:03:52.743Z,98046.91
2024-01-15T12:06:24.606Z,98057.20
2024-01-15T12:09:09.468Z,98049.66
2024-01-15T12:11:45.210Z,98043.54
2024-01-15T12:14:17.419Z,98047.05
2024-01-15T12:16:47.943Z,98043.09
2024-01-15T12:19:19.089Z,98043.21
2024-01-15T12:21:50.078Z,98043.68
2024-01-15T12:24:21.920Z,98053.66
2024-01-15T12:26:52.422Z,98052.63
2024-01-15T12:29:23.049Z,98048.39
2024-01-15T12:31:56.677Z,98055.97
2024-01-15T12:34:31.012Z,98056.96
2024-01-15T12:37:02.560Z,98056.27
2024-01-15T12:39:33.758Z,98059.49
2024-01-15T12:42:04.764Z,98052.35
2024-01-15T12:44:36.922Z,98043.73
2024-01-15T12:47:08.779Z,98046.41
2024-01-15T12:49:41.633Z,98049.12
2024-01-15T12:52:13.122Z,98045.02
2024-01-15T12:54:43.761Z,98039.13
2024-01-15T12:57:14.446Z,98039.48
2024-01-15T12:59:44.953Z,98032.55
2024-01-15T13:02:16.469Z,98035.45
2024-01-15T13:04:47.146Z,98050.30
2024-01-15T13:07:18.220Z,98048.55
2024-01-15T13:09:48.959Z,98043.11
2024-01-15T13:12:19.656Z,98047.81
2024-01-15T13:14:50.167Z,98043.70
2024-01-15T13:17:22.190Z,98037.39
2024-01-15T13:19:53.414Z,98043.80
2024-01-15T13:22:25.701Z,98044.13
2024-01-15T13:24:55.112Z,98043.12
2024-01-15T13:27:26.004Z,98036.53
2024-01-15T13:29:56.497Z,98042.27
2024-01-15T13:32:28.382Z,98038.45
2024-01-15T13:34:59.718Z,98044.23
2024-01-15T13:37:30.262Z,98036.11
2024-01-15T13:40:00.813Z,98044.19
2024-01-15T13:42:31.539Z,98030.14
2024-01-15T13:45:02.121Z,98026.42
2024-01-15T13:47:32.686Z,98028.46
2024-01-15T13:50:03.255Z,98043.74
2024-01-15T13:52:33.818Z,98040.23
2024-01-15T13:55:04.487Z,98044.97
2024-01-15T13:57:35.020Z,98043.79
2024-01-15T14:00:10.800Z,98042.94
2024-01-15T14:02:41.364Z,98040.23
2024-01-15T14:05:14.146Z,98051.40
2024-01-15T14:07:45.215Z,98060.33
2024-01-15T14:10:15.753Z,98060.13
2024-01-15T14:12:46.814Z,98056.85
2024-01-15T14:15:17.553Z,98061.73
2024-01-15T14:17:48.160Z,98064.31
2024-01-15T14:20:22.464Z,98064.30
2024-01-15T14:22:53.437Z,98063.42
2024-01-15T14:25:25.380Z,98066.47
2024-01-15T14:27:56.102Z,98069.89
2024-01-15T14:30:26.669Z,98061.83
2024-01-15T14:32:57.289Z,98071.66
2024-01-15T14:35:27.910Z,98067.77
2024-01-15T14:37:59.560Z,98071.79
2024-01-15T14:40:30.782Z,98066.30
2024-01-15T14:43:01.671Z,98059.67
2024-01-15T14:45:32.242Z,98070.15
2024-01-15T14:48:02.866Z,98072.20
2024-01-15T14:50:33.395Z,98068.82
2024-01-15T14:53:03.871Z,98075.52
2024-01-15T14:55:34.656Z,98081.39
2024-01-15T14:58:05.710Z,98069.38
2024-01-15T15:00:36.356Z,98076.64
2024-01-15T15:03:07.242Z,98076.42
2024-01-15T15:05:37.735Z,98083.48
2024-01-15T15:08:10.044Z,98077.17
2024-01-15T15:10:41.505Z,98081.23
2024-01-15T15:13:12.214Z,98082.59
2024-01-15T15:15:42.766Z,98085.63
2024-01-15T15:18:13.455Z,98102.50
2024-01-15T15:20:44.199Z,98099.42
2024-01-15T15:23:14.707Z,98100.10
2024-01-15T15:25:45.227Z,98103.98
2024-01-15T15:28:17.411Z,98110.89
2024-01-15T15:30:48.085Z,98109.00
2024-01-15T15:33:19.675Z,98104.44
2024-01-15T15:35:52.412Z,98111.16
2024-01-15T15:38:24.333Z,98111.11
2024-01-15T15:40:55.056Z,98119.10
2024-01-15T15:43:25.559Z,98125.52
2024-01-15T15:45:56.291Z,98122.77
2024-01-15T15:48:27.177Z,98125.16
2024-01-15T15:51:00.894Z,98133.45
2024-01-15T15:53:31.713Z,98135.81
2024-01-15T15:56:02.442Z,98144.44
2024-01-15T15:58:33.628Z,98146.31
2024-01-15T16:01:04.462Z,98147.19
2024-01-15T16:03:35.327Z,98149.55
2024-01-15T16:06:06.224Z,98147.69
2024-01-15T16:08:36.723Z,98152.09
2024-01-15T16:11:08.501Z,98157.00
2024-01-15T16:13:38.981Z,98156.14
2024-01-15T16:23:09.941Z,98161.38
2024-01-15T16:23:23.169Z,98165.45
2024-01-15T16:23:38.444Z,98168.19
2024-01-15T16:24:50.410Z,98168.73
2024-01-15T16:27:23.082Z,98167.60
2024-01-15T16:29:53.638Z,98166.40
2024-01-15T16:32:24.221Z,98172.80
2024-01-15T16:34:56.055Z,98176.48
2024-01-15T16:37:26.658Z,98178.45
2024-01-15T16:39:57.193Z,98184.98
2024-01-15T16:42:27.811Z,98189.13
2024-01-15T16:44:58.316Z,98187.36
2024-01-15T16:47:28.846Z,98183.20
2024-01-15T16:49:59.440Z,98183.81
2024-01-15T16:52:29.988Z,98187.69
2024-01-15T16:55:00.574Z,98187.59
2024-01-15T16:57:31.065Z,98193.17
2024-01-15T17:00:01.599Z,98201.84
2024-01-15T17:02:32.180Z,98198.14
2024-01-15T17:05:02.840Z,98199.32
2024-01-15T17:07:33.781Z,98205.04
2024-01-15T17:10:04.584Z,98205.02
2024-01-15T17:12:35.170Z,98206.39
2024-01-15T17:15:06.793Z,98201.61
2024-01-15T17:17:37.429Z,98208.55
2024-01-15T17:20:10.986Z,98217.14
2024-01-15T17:22:41.662Z,98218.43
2024-01-15T17:25:12.363Z,98220.24
2024-01-15T17:27:43.504Z,98226.45
2024-01-15T17:30:14.591Z,98220.04
2024-01-15T17:32:45.342Z,98221.56
2024-01-15T17:35:16.101Z,98223.02
2024-01-15T17:37:46.738Z,98222.12
2024-01-15T17:40:17.389Z,98223.86
2024-01-15T17:42:48.614Z,98223.87
2024-01-15T17:45:19.807Z,98227.27
2024-01-15T17:47:51.747Z,98231.73
2024-01-15T17:50:22.363Z,98229.38
2024-01-15T17:52:52.928Z,98240.94
2024-01-15T17:55:24.116Z,98237.09
2024-01-15T17:57:54.698Z,98234.75
2024-01-15T18:00:26.064Z,98232.47
2024-01-15T18:02:56.904Z,98238.45
2024-01-15T18:05:27.655Z,98251.13
2024-01-15T18:07:58.261Z,98246.93
2024-01-15T18:10:28.849Z,98245.95
2024-01-15T18:12:59.641Z,98255.05
2024-01-15T18:15:30.215Z,98252.81
2024-01-15T18:18:00.876Z,98252.92
2024-01-15T18:20:34.092Z,98255.95
2024-01-15T18:23:04.818Z,98263.88
2024-01-15T18:25:35.361Z,98265.34
2024-01-15T18:28:06.326Z,98262.77
2024-01-15T18:30:37.389Z,98265.54
2024-01-15T18:33:08.685Z,98272.77
2024-01-15T18:35:39.421Z,98274.23
2024-01-15T18:38:09.988Z,98280.49
2024-01-15T18:40:40.573Z,98279.64
2024-01-15T18:43:11.068Z,98278.73
2024-01-15T18:45:42.008Z,98282.75
2024-01-15T18:48:12.594Z,98281.18
2024-01-15T18:50:43.174Z,98281.09
2024-01-15T18:53:13.891Z,98276.11
2024-01-15T18:55:44.570Z,98278.98
2024-01-15T18:58:15.598Z,98279.98
2024-01-15T19:00:46.766Z,98285.29
2024-01-15T19:03:17.416Z,98282.38
2024-01-15T19:05:48.301Z,98288.56
2024-01-15T19:08:19.077Z,98284.66
2024-01-15T19:10:49.702Z,98285.17
2024-01-15T19:13:20.685Z,98289.55
2024-01-15T19:15:51.303Z,98292.91
2024-01-15T19:18:22.002Z,98291.19
2024-01-15T19:20:52.891Z,98295.73
2024-01-15T19:23:23.443Z,98296.21
2024-01-15T19:25:54.429Z,98300.00
2024-01-15T19:28:25.065Z,98295.65
2024-01-15T19:30:55.648Z,98298.67
2024-01-15T19:33:26.227Z,98305.19
2024-01-15T19:35:56.752Z,98306.69
2024-01-15T19:38:27.376Z,98305.33
2024-01-15T19:40:58.398Z,98317.07
2024-01-15T19:43:28.965Z,98315.88
2024-01-15T19:45:59.450Z,98321.81
2024-01-15T19:48:29.976Z,98328.60
2024-01-15T19:51:00.542Z,98335.89
2024-01-15T19:53:31.584Z,98340.95
2024-01-15T19:56:02.431Z,98337.18
2024-01-15T19:58:36.883Z,98346.88
2024-01-15T20:01:08.343Z,98343.53
2024-01-15T20:03:38.998Z,98342.65
2024-01-15T20:06:12.985Z,98348.52
2024-01-15T20:08:45.725Z,98355.77
2024-01-15T20:11:17.882Z,98356.20
2024-01-15T20:13:48.525Z,98364.15
2024-01-15T20:16:20.220Z,98360.30
2024-01-15T20:18:50.842Z,98367.11
2024-01-15T20:21:21.461Z,98366.30
2024-01-15T20:23:58.567Z,98378.69
2024-01-15T20:26:32.320Z,98377.48
2024-01-15T20:29:02.975Z,98385.57
2024-01-15T20:31:33.959Z,98388.05
2024-01-15T20:34:04.605Z,98394.59
2024-01-15T20:36:35.127Z,98402.98
2024-01-15T20:39:05.851Z,98399.42
2024-01-15T20:41:36.461Z,98397.33
2024-01-15T20:44:07.500Z,98398.13
2024-01-15T20:46:38.001Z,98399.77
2024-01-15T20:49:08.578Z,98402.52
2024-01-15T20:51:39.084Z,98402.12
2024-01-15T20:54:09.639Z,98399.73
2024-01-15T20:56:40.265Z,98403.59
2024-01-15T20:59:10.938Z,98410.80
2024-01-15T21:01:41.418Z,98409.15
2024-01-15T21:04:13.273Z,98410.20
2024-01-15T21:06:43.975Z,98415.61
2024-01-15T21:09:14.470Z,98409.25
2024-01-15T21:11:45.008Z,98410.89
2024-01-15T21:14:19.521Z,98408.94
2024-01-15T21:16:50.324Z,98407.50
2024-01-15T21:19:21.113Z,98413.44
2024-01-15T21:21:51.650Z,98413.73
2024-01-15T21:24:27.355Z,98416.71
2024-01-15T21:26:59.310Z,98422.77
2024-01-15T21:29:29.913Z,98426.27
2024-01-15T21:32:00.860Z,98433.96
2024-01-15T21:34:31.422Z,98438.19
2024-01-15T21:37:04.329Z,98445.54
2024-01-15T21:39:36.337Z,98444.63
2024-01-15T21:42:06.985Z,98444.28
2024-01-15T21:44:37.494Z,98453.59
2024-01-15T21:47:08.393Z,98459.20
2024-01-15T21:49:39.046Z,98470.42
2024-01-15T21:52:10.160Z,98470.27
2024-01-15T21:54:40.630Z,98468.66
2024-01-15T21:57:11.121Z,98471.70
2024-01-15T21:59:41.700Z,98468.77
2024-01-15T22:02:12.206Z,98476.02
2024-01-15T22:04:42.691Z,98472.95
2024-01-15T22:07:13.169Z,98474.82
2024-01-15T22:09:43.630Z,98467.27
2024-01-15T22:12:14.098Z,98460.73
2024-01-15T22:14:44.638Z,98477.57
2024-01-15T22:17:15.200Z,98473.00
2024-01-15T22:19:45.707Z,98472.98
2024-01-15T22:22:16.210Z,98479.52
2024-01-15T22:24:46.682Z,98483.86
2024-01-15T22:27:17.397Z,98488.92
2024-01-15T22:29:51.894Z,98497.40
2024-01-15T22:32:23.671Z,98495.88
2024-01-15T22:34:54.415Z,98499.09
2024-01-15T22:37:24.893Z,98502.47
2024-01-15T22:39:55.446Z,98499.30
2024-01-15T22:42:26.641Z,98506.42
2024-01-15T22:44:58.062Z,98499.14
2024-01-15T22:47:28.879Z,98496.48
2024-01-15T22:49:59.620Z,98503.15
2024-01-15T22:52:30.181Z,98504.89
2024-01-15T22:55:00.696Z,98504.64
2024-01-15T22:57:31.165Z,98506.73
2024-01-15T23:00:01.906Z,98505.95
2024-01-15T23:02:32.455Z,98501.80
2024-01-15T23:05:03.259Z,98509.45
2024-01-15T23:07:33.864Z,98509.71
2024-01-15T23:10:04.890Z,98517.77
2024-01-15T23:12:35.340Z,98520.96
2024-01-15T23:15:06.894Z,98521.77
2024-01-15T23:17:37.542Z,98529.03
2024-01-15T23:20:12.174Z,98537.11
2024-01-15T23:22:42.844Z,98535.52
2024-01-15T23:25:13.744Z,98542.42
2024-01-15T23:27:46.644Z,98545.29
2024-01-15T23:30:17.896Z,98544.44
2024-01-15T23:32:49.002Z,98548.70
2024-01-15T23:35:19.849Z,98549.41
2024-01-15T23:37:50.433Z,98552.86
2024-01-15T23:40:21.067Z,98549.17
2024-01-15T23:42:51.705Z,98553.36
2024-01-15T23:45:22.264Z,98555.33
2024-01-15T23:47:52.869Z,98547.83
2024-01-15T23:50:23.518Z,98545.10
2024-01-15T23:52:54.029Z,98544.36
2024-01-15T23:55:24.630Z,98548.39
2024-01-15T23:57:55.103Z,98546.16
